Current Weather

Lansing Muni

Chicago, Illinois (KIGQ)

Report from: Monday, March 4, 2024 6:15 PM CST
Current time: Monday, March 4, 2024 6:42 PM CST

Nearby weather – Weather history – Daily summaries
Weather forecast

Temperature20.0°C (68.0°F)
Dew point15.5°C (59.9°F)
Winds 12 kts (6.2 m/s, 13.8 mph) South (190°)
Visibility10 mi. (16.1 km)
Clouds Scattered clouds 4,400 ft. (1,341 m)
Scattered clouds 5,000 ft. (1,524 m)
Ceiling: Overcast 7,000 ft. (2,134 m)
Altimeter29.84 in.Hg (1010 mB)
Relative humidity75 %
Density altitude921 ft. (281 m)
Remarks Fully automated report
Automated weather observing station with precipitation discriminator
Lightning observed
Distant west
Flight conditions Visual Meteorological Conditions
Raw dataKIGQ 050015Z AUTO 19012KT 10SM SCT044 SCT050 OVC070 20/16 A2984 RMK AO2 LTG DSNT W T02000155
An error has occurred. This application may no longer respond until reloaded. Reload 🗙